createdAt,value
2018-09-09T00:00:09.516Z,13.6
2018-09-09T00:05:09.304Z,13.7
2018-09-09T00:10:09.006Z,13.7
2018-09-09T00:15:08.607Z,13.7
2018-09-09T00:20:09.149Z,13.7
2018-09-09T00:25:08.670Z,13.7
2018-09-09T00:30:09.358Z,13.7
2018-09-09T00:35:08.948Z,13.7
2018-09-09T00:40:09.535Z,13.7
2018-09-09T00:45:09.005Z,13.7
2018-09-09T00:50:09.511Z,13.7
2018-09-09T00:55:09.167Z,13.7
2018-09-09T01:00:09.399Z,13.7
2018-09-09T01:05:08.611Z,13.7
2018-09-09T01:10:09.085Z,13.7
2018-09-09T01:15:09.565Z,13.7
2018-09-09T01:20:09.108Z,13.7
2018-09-09T01:25:09.553Z,13.6
2018-09-09T01:30:09.137Z,13.6
2018-09-09T01:35:08.666Z,13.6
2018-09-09T01:40:09.132Z,13.6
2018-09-09T01:45:09.615Z,13.5
2018-09-09T01:50:08.817Z,13.5
2018-09-09T01:55:09.204Z,13.4
2018-09-09T02:00:08.718Z,13.4
2018-09-09T02:05:09.671Z,13.4
2018-09-09T02:10:09.209Z,13.4
2018-09-09T02:15:08.697Z,13.3
2018-09-09T02:20:09.161Z,13.3
2018-09-09T02:25:08.623Z,13.3
2018-09-09T02:30:09.116Z,13.3
2018-09-09T02:35:08.904Z,13.2
2018-09-09T02:40:09.335Z,13.2
2018-09-09T02:45:08.947Z,13.2
2018-09-09T02:50:09.441Z,13.2
2018-09-09T02:55:08.925Z,13.1
2018-09-09T03:00:09.468Z,13.1
2018-09-09T03:05:09.669Z,13
2018-09-09T03:10:09.151Z,13
2018-09-09T03:15:09.645Z,12.9
2018-09-09T03:20:09.112Z,12.9
2018-09-09T03:25:09.589Z,12.9
2018-09-09T03:30:09.059Z,12.9
2018-09-09T03:35:09.561Z,12.8
2018-09-09T03:40:09.014Z,12.8
2018-09-09T03:45:09.580Z,12.8
2018-09-09T03:50:09.140Z,12.8
2018-09-09T03:55:09.658Z,12.7
2018-09-09T04:00:09.211Z,12.7
2018-09-09T04:05:08.941Z,12.6
2018-09-09T04:10:09.670Z,12.6
2018-09-09T04:15:09.251Z,12.5
2018-09-09T04:20:09.792Z,12.5
2018-09-09T04:25:09.459Z,12.4
2018-09-09T04:30:09.052Z,12.4
2018-09-09T04:35:09.546Z,12.4
2018-09-09T04:40:09.001Z,12.4
2018-09-09T04:45:09.510Z,12.3
2018-09-09T04:50:09.684Z,12.3
2018-09-09T04:55:09.130Z,12.3
2018-09-09T05:00:09.660Z,12.3
2018-09-09T05:05:09.903Z,12.3
2018-09-09T05:10:09.445Z,12.3
2018-09-09T05:15:09.032Z,12.3
2018-09-09T05:20:09.543Z,12.3
2018-09-09T05:25:08.938Z,12.3
2018-09-09T05:30:09.395Z,12.3
2018-09-09T05:35:08.930Z,12.4
2018-09-09T05:40:09.458Z,12.4
2018-09-09T05:45:08.920Z,12.4
2018-09-09T05:50:09.424Z,12.4
2018-09-09T05:55:09.876Z,12.6
2018-09-09T06:00:09.441Z,12.6
2018-09-09T06:05:09.117Z,12.7
2018-09-09T06:10:09.572Z,12.7
2018-09-09T06:15:09.240Z,12.8
2018-09-09T06:20:09.775Z,12.8
2018-09-09T06:25:09.138Z,13
2018-09-09T06:30:09.628Z,13
2018-09-09T06:35:09.070Z,13.2
2018-09-09T06:40:09.546Z,13.2
2018-09-09T06:45:09.022Z,13.4
2018-09-09T06:50:09.527Z,13.4
2018-09-09T06:55:09.003Z,13.7
2018-09-09T07:00:09.506Z,13.7
2018-09-09T07:05:09.414Z,13.9
2018-09-09T07:10:09.882Z,13.9
2018-09-09T07:15:09.387Z,14.1
2018-09-09T07:20:10.025Z,14.1
2018-09-09T07:25:09.505Z,14.3
2018-09-09T07:30:09.684Z,14.3
2018-09-09T07:35:09.201Z,14.6
2018-09-09T07:40:09.767Z,14.6
2018-09-09T07:45:09.206Z,14.8
2018-09-09T07:50:09.681Z,14.8
2018-09-09T07:55:09.229Z,15.1
2018-09-09T08:00:09.847Z,15.1
2018-09-09T08:05:09.748Z,15.3
2018-09-09T08:10:09.189Z,15.3
2018-09-09T08:15:09.683Z,15.6
2018-09-09T08:20:09.963Z,15.6
2018-09-09T08:25:09.464Z,15.9
2018-09-09T08:30:10.056Z,15.9
2018-09-09T08:35:09.560Z,16.2
2018-09-09T08:40:09.090Z,16.2
2018-09-09T08:45:09.625Z,16.6
2018-09-09T08:50:10.140Z,16.6
2018-09-09T08:55:09.622Z,17
2018-09-09T09:00:09.212Z,17
2018-09-09T09:05:09.481Z,18.2
2018-09-09T09:10:09.941Z,18.2
2018-09-09T09:15:09.434Z,18.4
2018-09-09T09:20:09.937Z,18.4
2018-09-09T09:25:09.395Z,18.5
2018-09-09T09:30:09.953Z,18.5
2018-09-09T09:35:09.478Z,18.6
2018-09-09T09:40:09.997Z,18.6
2018-09-09T09:45:09.478Z,18.7
2018-09-09T09:50:09.894Z,18.7
2018-09-09T09:55:09.412Z,18.9
2018-09-09T10:00:09.986Z,18.9
2018-09-09T10:05:09.225Z,19.3
2018-09-09T10:10:09.744Z,19.3
2018-09-09T10:15:09.431Z,20
2018-09-09T10:20:09.879Z,20
2018-09-09T10:25:09.342Z,20.4
2018-09-09T10:30:09.972Z,20.4
2018-09-09T10:35:09.487Z,21.6
2018-09-09T10:40:10.044Z,21.6
2018-09-09T10:45:09.547Z,23.2
2018-09-09T10:50:10.049Z,23.2
2018-09-09T10:55:09.519Z,23.1
2018-09-09T11:00:10.089Z,23.1
2018-09-09T11:05:10.316Z,22.1
2018-09-09T11:10:09.851Z,22.1
2018-09-09T11:15:09.513Z,21.5
2018-09-09T11:20:09.986Z,21.5
2018-09-09T11:25:09.501Z,21.4
2018-09-09T11:30:10.020Z,21.4
2018-09-09T11:35:09.525Z,21.4
2018-09-09T11:40:10.060Z,21.4
2018-09-09T11:45:09.556Z,22.6
2018-09-09T11:50:10.030Z,22.6
2018-09-09T11:55:09.528Z,22.8
2018-09-09T12:00:10.036Z,22.8
2018-09-09T12:05:10.316Z,22.8
2018-09-09T12:10:09.766Z,22.8
2018-09-09T12:15:10.253Z,22.4
2018-09-09T12:20:09.785Z,22.4
2018-09-09T12:25:10.291Z,22.3
2018-09-09T12:30:09.777Z,22.3
2018-09-09T12:35:09.714Z,22.3
2018-09-09T12:40:09.329Z,22.3
2018-09-09T12:45:09.886Z,22.2
2018-09-09T12:50:10.427Z,22.2
2018-09-09T12:55:09.906Z,22.3
2018-09-09T13:00:09.514Z,22.3
2018-09-09T13:05:10.046Z,22.4
2018-09-09T13:10:10.837Z,22.4
2018-09-09T13:15:10.310Z,22.3
2018-09-09T13:20:10.065Z,22.3
2018-09-09T13:25:09.485Z,22.8
2018-09-09T13:30:10.126Z,22.8
2018-09-09T13:35:09.614Z,22.8
2018-09-09T13:40:10.042Z,22.8
2018-09-09T13:45:09.554Z,22.6
2018-09-09T13:50:10.080Z,22.6
2018-09-09T13:55:09.604Z,22.4
2018-09-09T14:00:10.135Z,22.4
2018-09-09T14:05:10.280Z,22.3
2018-09-09T14:10:10.172Z,22.3
2018-09-09T14:15:09.818Z,22.3
2018-09-09T14:20:10.331Z,22.3
2018-09-09T14:25:09.846Z,22.3
2018-09-09T14:30:10.149Z,22.3
2018-09-09T14:35:10.014Z,22.3
2018-09-09T14:40:09.537Z,22.3
2018-09-09T14:45:10.002Z,22.2
2018-09-09T14:50:09.515Z,22.2
2018-09-09T14:55:10.037Z,22.1
2018-09-09T15:00:09.836Z,22.1
2018-09-09T15:05:10.380Z,22.4
2018-09-09T15:10:09.598Z,22.4
2018-09-09T15:15:10.123Z,22.4
2018-09-09T15:20:09.581Z,22.4
2018-09-09T15:25:10.287Z,22.4
2018-09-09T15:30:09.747Z,22.4
2018-09-09T15:35:10.208Z,22.4
2018-09-09T15:40:09.627Z,22.4
2018-09-09T15:45:10.178Z,22.4
2018-09-09T15:50:09.609Z,22.4
2018-09-09T15:55:10.040Z,22.4
2018-09-09T16:00:10.660Z,22.4
2018-09-09T16:05:10.261Z,22.3
2018-09-09T16:10:10.532Z,22.3
2018-09-09T16:15:10.088Z,22.2
2018-09-09T16:20:10.592Z,22.2
2018-09-09T16:25:10.015Z,22.1
2018-09-09T16:30:10.542Z,22.1
2018-09-09T16:35:09.983Z,22.1
2018-09-09T16:40:10.412Z,22.1
2018-09-09T16:45:10.032Z,21.9
2018-09-09T16:50:10.590Z,21.9
2018-09-09T16:55:10.050Z,21.8
2018-09-09T17:00:10.643Z,21.8
2018-09-09T17:05:10.186Z,21.8
2018-09-09T17:10:10.213Z,21.8
2018-09-09T17:15:10.733Z,21.7
2018-09-09T17:20:10.228Z,21.7
2018-09-09T17:25:10.658Z,21.6
2018-09-09T17:30:10.318Z,21.6
2018-09-09T17:35:09.935Z,21.5
2018-09-09T17:40:10.487Z,21.5
2018-09-09T17:45:09.949Z,21.3
2018-09-09T17:50:10.420Z,21.3
2018-09-09T17:55:09.906Z,21.2
2018-09-09T18:00:10.567Z,21.2
2018-09-09T18:05:10.117Z,20.8
2018-09-09T18:10:09.943Z,20.8
2018-09-09T18:15:10.424Z,20.6
2018-09-09T18:20:10.050Z,20.6
2018-09-09T18:25:10.593Z,20.2
2018-09-09T18:30:10.183Z,20.2
2018-09-09T18:35:10.713Z,19.7
2018-09-09T18:40:10.261Z,19.7
2018-09-09T18:45:10.768Z,19.2
2018-09-09T18:50:10.304Z,19.2
2018-09-09T18:55:10.726Z,18.7
2018-09-09T19:00:10.414Z,18.7
2018-09-09T19:05:10.274Z,18.3
2018-09-09T19:10:10.629Z,18.3
2018-09-09T19:15:10.220Z,17.9
2018-09-09T19:20:10.653Z,17.9
2018-09-09T19:25:10.296Z,17.5
2018-09-09T19:30:10.798Z,17.5
2018-09-09T19:35:10.574Z,17.2
2018-09-09T19:40:09.999Z,17.2
2018-09-09T19:45:10.607Z,16.8
2018-09-09T19:50:10.085Z,16.8
2018-09-09T19:55:10.732Z,16.6
2018-09-09T20:00:10.375Z,16.6
2018-09-09T20:05:10.868Z,16.2
2018-09-09T20:10:10.736Z,16.2
2018-09-09T20:15:10.378Z,15.9
2018-09-09T20:20:09.919Z,15.9
2018-09-09T20:25:10.442Z,15.7
2018-09-09T20:30:10.948Z,15.7
2018-09-09T20:35:10.638Z,15.4
2018-09-09T20:40:10.347Z,15.4
2018-09-09T20:45:10.911Z,15.2
2018-09-09T20:50:10.475Z,15.2
2018-09-09T20:55:10.021Z,14.9
2018-09-09T21:00:10.564Z,14.9
2018-09-09T21:05:10.127Z,14.7
2018-09-09T21:10:10.791Z,14.7
2018-09-09T21:15:10.410Z,14.6
2018-09-09T21:20:10.883Z,14.6
2018-09-09T21:25:10.355Z,14.4
2018-09-09T21:30:10.938Z,14.4
2018-09-09T21:35:10.578Z,14.3
2018-09-09T21:40:10.000Z,14.3
2018-09-09T21:45:10.472Z,14.2
2018-09-09T21:50:10.963Z,14.2
2018-09-09T21:55:10.465Z,14.2
2018-09-09T22:00:11.043Z,14.2
2018-09-09T22:05:10.776Z,14.2
2018-09-09T22:10:10.408Z,14.2
2018-09-09T22:15:11.018Z,14.2
2018-09-09T22:20:10.780Z,14.2
2018-09-09T22:25:10.290Z,14.2
2018-09-09T22:30:10.822Z,14.2
2018-09-09T22:35:10.234Z,14.2
2018-09-09T22:40:10.743Z,14.2
2018-09-09T22:45:11.094Z,14.2
2018-09-09T22:50:10.520Z,14.2
2018-09-09T22:55:11.016Z,14.2
2018-09-09T23:00:10.605Z,14.2
2018-09-09T23:05:10.426Z,14.2
2018-09-09T23:10:10.625Z,14.2
2018-09-09T23:15:11.112Z,14.2
2018-09-09T23:20:10.616Z,14.2
2018-09-09T23:25:11.103Z,14.1
2018-09-09T23:30:10.670Z,14.1
2018-09-09T23:35:10.190Z,14.1
2018-09-09T23:40:10.658Z,14.1
2018-09-09T23:45:10.243Z,14.2
2018-09-09T23:50:10.740Z,14.2
2018-09-09T23:55:10.328Z,14.2
